.
WxDataArchive / Data Records for 2006-03-30
2006-03-29 March 2006 2006-03-31

Data Records for Thursday, 30 March 2006

Time	Temp	Chill	HIndex	Humid	Dewpt	 Wind 	HiWind	WindDir	Rain 	Barom 
-----	----	-----	------	-----	-----	------	------	-------	-----	----- 
00:00	35.8	35.8	35.8	91	33.4	0	0	---	0.00	30.213 
00:05	35.6	35.6	35.6	91	33.2	0	0	---	0.00	30.213 
00:10	35.5	35.5	35.5	91	33.1	0	0	---	0.00	30.213 
00:15	35.3	35.3	35.3	91	32.9	0	0	---	0.00	30.208 
00:20	35.3	35.3	35.3	91	32.9	0	0	---	0.00	30.208 
00:25	35.5	35.5	35.5	92	33.4	0	1	112	0.00	30.208 
00:30	35.3	35.3	35.3	92	33.2	0	0	---	0.00	30.201 
00:35	35.3	35.3	35.3	92	33.2	0	0	---	0.00	30.201 
00:40	35.3	35.3	35.3	92	33.2	0	0	---	0.00	30.201 
00:45	35.3	35.3	35.3	92	33.2	0	0	---	0.00	30.199 
00:50	35.0	35.0	35.0	92	32.9	0	0	---	0.00	30.199 
00:55	34.9	34.9	34.9	92	32.8	0	0	---	0.00	30.199 
01:00	34.9	34.9	34.9	92	32.8	0	0	---	0.00	30.198 
01:05	34.9	34.9	34.9	92	32.8	0	0	---	0.00	30.198 
01:10	34.7	34.7	34.7	92	32.6	0	0	---	0.00	30.198 
01:15	34.7	34.7	34.7	92	32.6	0	0	---	0.00	30.197 
01:20	34.6	34.6	34.6	92	32.5	0	0	---	0.00	30.197 
01:25	34.6	34.6	34.6	93	32.8	0	1	112	0.00	30.197 
01:30	34.9	34.9	34.9	93	33.1	0	1	112	0.00	30.192 
01:35	34.9	34.9	34.9	93	33.1	0	0	---	0.00	30.192 
01:40	34.7	34.7	34.7	93	32.9	0	0	---	0.00	30.192 
01:45	34.6	34.6	34.6	93	32.8	0	0	---	0.00	30.188 
01:50	34.4	34.4	34.4	93	32.6	0	0	---	0.00	30.188 
01:55	34.4	34.4	34.4	93	32.6	0	0	---	0.00	30.188 
02:00	34.3	34.3	34.3	93	32.5	0	0	---	0.00	30.189 
02:05	34.3	34.3	34.3	93	32.5	0	1	112	0.00	30.189 
02:10	34.4	34.4	34.4	93	32.6	0	1	112	0.00	30.189 
02:15	34.4	34.4	34.4	93	32.6	0	0	---	0.00	30.192 
02:20	34.3	34.3	34.3	93	32.5	0	0	---	0.00	30.192 
02:25	34.0	34.0	34.0	93	32.2	0	0	---	0.00	30.192 
02:30	33.7	33.7	33.7	93	31.9	0	0	---	0.00	30.188 
02:35	33.4	33.4	33.4	93	31.6	0	0	---	0.00	30.188 
02:40	33.4	33.4	33.4	93	31.6	0	0	---	0.00	30.188 
02:45	33.2	33.2	33.2	93	31.4	0	0	---	0.00	30.185 
02:50	33.1	33.1	33.1	93	31.3	0	0	---	0.00	30.185 
02:55	32.9	32.9	32.9	93	31.1	0	0	---	0.00	30.185 
03:00	32.9	32.9	32.9	93	31.1	0	0	---	0.00	30.184 
03:05	32.9	32.9	32.9	93	31.1	0	1	112	0.00	30.184 
03:10	32.9	32.9	32.9	93	31.1	0	0	---	0.00	30.184 
03:15	32.8	32.8	32.8	93	31.0	0	0	---	0.00	30.186 
03:20	32.7	32.7	32.7	93	30.9	0	0	---	0.00	30.186 
03:25	32.7	32.7	32.7	93	30.9	0	0	---	0.00	30.186 
03:30	32.7	32.7	32.7	93	30.9	0	0	---	0.00	30.187 
03:35	32.7	32.7	32.7	93	30.9	0	0	---	0.00	30.187 
03:40	32.7	32.7	32.7	93	30.9	0	0	---	0.00	30.187 
03:45	32.5	32.5	32.5	93	30.7	0	0	---	0.00	30.186 
03:50	32.5	32.5	32.5	93	30.7	0	0	---	0.00	30.186 
03:55	32.5	32.5	32.5	93	30.7	0	0	---	0.00	30.186 
04:00	32.4	32.4	32.4	93	30.6	0	0	---	0.00	30.185 
04:05	32.2	32.2	32.2	93	30.4	0	0	---	0.00	30.185 
04:10	32.1	32.1	32.1	93	30.3	0	0	---	0.00	30.185 
04:15	31.9	31.9	31.9	93	30.1	0	0	---	0.00	30.183 
04:20	31.9	31.9	31.9	93	30.1	0	0	---	0.00	30.183 
04:25	31.8	31.8	31.8	93	30.0	0	0	---	0.00	30.183 
04:30	31.6	31.6	31.6	93	29.8	0	0	---	0.00	30.178 
04:35	31.6	31.6	31.6	93	29.8	0	0	---	0.00	30.178 
04:40	31.5	31.5	31.5	93	29.7	0	0	---	0.00	30.178 
04:45	31.3	31.3	31.3	93	29.5	0	0	---	0.00	30.177 
04:50	31.3	31.3	31.3	93	29.5	0	0	---	0.00	30.177 
04:55	31.2	31.2	31.2	93	29.4	0	0	---	0.00	30.177 
05:00	31.8	31.8	31.8	94	30.3	0	0	---	0.00	30.174 
05:05	32.1	32.1	32.1	94	30.6	0	0	---	0.00	30.174 
05:10	32.7	32.7	32.7	94	31.2	0	0	---	0.00	30.174 
05:15	32.9	32.9	32.9	94	31.4	0	2	112	0.00	30.173 
05:20	32.9	32.9	32.9	94	31.4	0	0	---	0.00	30.173 
05:25	32.7	32.7	32.7	94	31.2	0	0	---	0.00	30.173 
05:30	32.4	32.4	32.4	94	30.9	0	0	---	0.00	30.173 
05:35	32.7	32.7	32.7	94	31.2	0	1	112	0.00	30.173 
05:40	32.9	32.9	32.9	94	31.4	0	1	112	0.00	30.173 
05:45	33.1	33.1	33.1	94	31.6	0	0	---	0.00	30.174 
05:50	33.2	33.2	33.2	94	31.7	0	1	112	0.00	30.174 
05:55	33.5	33.5	33.5	94	32.0	0	1	112	0.00	30.174 
06:00	33.5	33.5	33.5	94	32.0	0	1	112	0.00	30.174 
06:05	33.2	33.2	33.2	94	31.7	0	0	---	0.00	30.174 
06:10	33.1	33.1	33.1	94	31.6	0	0	---	0.00	30.174 
06:15	32.9	32.9	32.9	94	31.4	0	0	---	0.00	30.178 
06:20	32.7	32.7	32.7	94	31.2	0	0	---	0.00	30.178 
06:25	32.4	32.4	32.4	94	30.9	0	0	---	0.00	30.178 
06:30	32.2	32.2	32.2	94	30.7	0	0	---	0.00	30.179 
06:35	32.1	32.1	32.1	94	30.6	0	0	---	0.00	30.179 
06:40	31.9	31.9	31.9	94	30.4	0	0	---	0.00	30.179 
06:45	32.1	32.1	32.1	94	30.6	0	0	---	0.00	30.179 
06:50	32.2	32.2	32.2	94	30.7	0	0	---	0.00	30.179 
06:55	32.2	32.2	32.2	94	30.7	0	0	---	0.00	30.179 
07:00	32.5	32.5	32.5	94	31.0	0	0	---	0.00	30.186 
07:05	32.7	32.7	32.7	94	31.2	0	0	---	0.00	30.186 
07:10	33.1	33.1	33.1	94	31.6	0	0	---	0.00	30.186 
07:15	33.8	33.8	33.8	95	32.5	0	0	---	0.00	30.188 
07:20	34.9	34.9	34.9	95	33.6	0	1	112	0.00	30.188 
07:25	35.6	35.6	35.6	95	34.3	1	2	112	0.00	30.188 
07:30	36.0	36.0	36.0	95	34.7	1	2	112	0.00	30.187 
07:35	36.5	36.5	36.5	95	35.2	1	3	112	0.00	30.187 
07:40	36.9	36.9	36.9	95	35.6	1	3	90	0.00	30.187 
07:45	37.3	37.3	37.3	94	35.7	1	3	90	0.00	30.190 
07:50	37.8	37.8	37.8	93	36.0	1	3	90	0.00	30.190 
07:55	38.3	38.3	38.3	91	35.9	1	3	90	0.00	30.190 
08:00	38.9	38.9	38.9	89	35.9	2	3	90	0.00	30.188 
08:05	39.5	39.5	39.5	88	36.2	2	4	90	0.00	30.188 
08:10	39.9	39.9	39.9	88	36.6	1	3	90	0.00	30.188 
08:15	40.5	40.5	40.5	86	36.6	2	4	90	0.00	30.191 
08:20	40.9	40.9	40.9	85	36.7	2	4	112	0.00	30.191 
08:25	41.6	41.6	41.6	85	37.4	1	3	112	0.00	30.191 
08:30	42.1	42.1	42.1	83	37.3	2	4	112	0.00	30.187 
08:35	42.6	42.6	42.6	83	37.8	1	3	112	0.00	30.187 
08:40	43.5	43.5	43.5	82	38.4	1	4	112	0.00	30.187 
08:45	44.5	44.5	44.5	81	39.0	1	3	112	0.00	30.188 
08:50	45.5	45.5	45.5	79	39.4	1	3	112	0.00	30.188 
08:55	46.8	46.8	46.8	78	40.3	1	3	135	0.00	30.188 
09:00	47.7	47.7	47.7	77	40.8	1	4	90	0.00	30.176 
09:05	48.2	48.2	48.2	74	40.3	1	4	90	0.00	30.176 
09:10	48.8	48.8	48.8	74	40.9	2	4	90	0.00	30.176 
09:15	49.4	49.4	49.4	72	40.8	2	5	90	0.00	30.181 
09:20	50.1	50.1	50.1	70	40.7	2	4	112	0.00	30.181 
09:25	50.8	50.8	50.8	72	42.1	2	5	112	0.00	30.181 
09:30	51.7	51.7	51.7	69	41.9	2	5	90	0.00	30.177 
09:35	52.5	52.5	52.5	68	42.2	2	4	90	0.00	30.177 
09:40	53.2	53.2	53.2	65	41.7	3	5	90	0.00	30.177 
09:45	54.1	54.1	54.1	65	42.6	2	3	90	0.00	30.173 
09:50	54.5	54.5	54.5	65	43.0	2	6	90	0.00	30.173 
09:55	55.1	55.1	55.1	63	42.7	2	5	90	0.00	30.173 
10:00	55.7	55.7	55.7	64	43.7	2	5	90	0.00	30.172 
10:05	56.3	56.3	56.3	62	43.4	1	4	90	0.00	30.172 
10:10	56.9	56.9	56.9	58	42.3	2	7	112	0.00	30.172 
10:15	57.5	57.5	57.5	58	42.8	2	5	112	0.00	30.168 
10:20	58.1	58.1	58.1	59	43.8	2	5	90	0.00	30.168 
10:25	58.4	58.4	58.4	60	44.6	2	6	90	0.00	30.168 
10:30	58.6	58.6	58.6	56	43.0	3	6	90	0.00	30.163 
10:35	58.9	58.9	58.9	54	42.3	2	5	90	0.00	30.163 
10:40	59.0	59.0	59.0	57	43.8	3	7	90	0.00	30.163 
10:45	58.7	58.7	58.7	57	43.5	2	4	248	0.00	30.157 
10:50	59.3	59.3	59.3	57	44.1	2	4	135	0.00	30.157 
10:55	59.6	59.6	59.6	58	44.8	3	5	248	0.00	30.157 
11:00	59.8	59.8	59.8	54	43.1	3	10	90	0.00	30.156 
11:05	59.8	59.8	59.8	55	43.6	2	7	248	0.00	30.156 
11:10	59.6	59.6	59.6	55	43.4	3	8	248	0.00	30.156 
11:15	60.1	60.1	60.1	54	43.4	2	5	90	0.00	30.155 
11:20	60.5	60.5	60.5	53	43.3	3	9	90	0.00	30.155 
11:25	60.9	60.9	60.9	52	43.2	3	7	90	0.00	30.155 
11:30	60.9	60.9	60.9	50	42.1	3	9	112	0.00	30.145 
11:35	61.2	61.2	61.2	50	42.4	3	10	90	0.00	30.145 
11:40	61.3	61.3	61.3	49	42.0	4	9	112	0.00	30.145 
11:45	61.6	61.6	61.6	51	43.3	3	6	112	0.00	30.136 
11:50	62.3	62.3	62.3	49	42.9	3	5	90	0.00	30.136 
11:55	62.4	62.4	62.4	50	43.5	3	6	90	0.00	30.136 
12:00	62.6	62.6	62.6	50	43.7	3	6	90	0.00	30.127 
12:05	62.3	62.3	62.3	50	43.4	4	10	112	0.00	30.127 
12:10	62.4	62.4	62.4	51	44.0	2	5	90	0.00	30.127 
12:15	62.6	62.6	62.6	49	43.2	3	7	270	0.00	30.122 
12:20	62.7	62.7	62.7	49	43.3	3	9	248	0.00	30.122 
12:25	63.2	63.2	63.2	46	42.1	3	9	90	0.00	30.122 
12:30	63.1	63.1	63.1	46	42.0	3	8	90	0.00	30.116 
12:35	63.1	63.1	63.1	50	44.2	4	11	90	0.00	30.116 
12:40	63.1	63.1	63.1	48	43.1	3	6	90	0.00	30.116 
12:45	63.5	63.5	63.5	48	43.5	3	6	112	0.00	30.109 
12:50	64.2	64.2	64.2	49	44.6	3	7	90	0.00	30.109 
12:55	64.3	64.3	64.3	46	43.1	3	5	112	0.00	30.109 
13:00	64.5	64.5	64.5	49	44.9	2	6	90	0.00	30.103 
13:05	65.0	65.0	65.0	47	44.3	2	5	90	0.00	30.103 
13:10	65.5	65.5	65.5	46	44.2	2	7	112	0.00	30.103 
13:15	65.2	65.2	65.2	44	42.7	3	5	248	0.00	30.097 
13:20	65.0	65.0	65.0	44	42.6	3	8	248	0.00	30.097 
13:25	64.8	64.8	64.8	47	44.1	4	9	248	0.00	30.097 
13:30	65.0	65.0	65.0	44	42.6	3	6	90	0.00	30.094 
13:35	65.2	65.2	65.2	49	45.6	3	9	90	0.00	30.094 
13:40	65.3	65.3	65.3	42	41.6	3	7	270	0.00	30.094 
13:45	65.6	65.6	65.6	44	43.1	2	5	270	0.00	30.086 
13:50	65.8	65.8	65.8	44	43.3	3	7	90	0.00	30.086 
13:55	66.0	66.0	66.0	43	42.9	3	6	90	0.00	30.086 
14:00	66.1	66.1	66.1	43	42.9	3	7	90	0.00	30.075 
14:05	66.3	66.3	66.3	42	42.5	3	9	90	0.00	30.075 
14:10	66.3	66.3	66.3	42	42.5	4	8	248	0.00	30.075 
14:15	66.1	66.1	66.1	45	44.1	3	7	248	0.00	30.069 
14:20	66.4	66.4	66.4	41	42.0	3	7	112	0.00	30.069 
14:25	66.3	66.3	66.3	39	40.6	4	10	90	0.00	30.069 
14:30	66.6	66.6	66.6	42	42.8	2	7	270	0.00	30.061 
14:35	66.9	66.9	66.9	44	44.3	2	5	90	0.00	30.061 
14:40	67.1	67.1	67.1	39	41.3	3	7	90	0.00	30.061 
14:45	67.3	67.3	67.3	40	42.1	3	6	248	0.00	30.057 
14:50	67.3	67.3	67.3	40	42.1	3	7	248	0.00	30.057 
14:55	66.9	66.9	66.9	40	41.8	5	10	248	0.00	30.057 
15:00	66.9	66.9	66.9	41	42.4	2	7	68	0.00	30.051 
15:05	67.3	67.3	67.3	39	41.5	2	7	90	0.00	30.051 
15:10	67.3	67.3	67.3	38	40.8	3	10	202	0.00	30.051 
15:15	67.4	67.4	67.4	38	40.9	3	7	90	0.00	30.045 
15:20	67.4	67.4	67.4	38	40.9	3	5	90	0.00	30.045 
15:25	67.3	67.3	67.3	39	41.5	4	12	90	0.00	30.045 
15:30	67.4	67.4	67.4	40	42.2	2	6	90	0.00	30.042 
15:35	68.1	68.1	68.1	36	40.1	3	9	112	0.00	30.042 
15:40	68.1	68.1	68.1	38	41.5	3	6	112	0.00	30.042 
15:45	68.3	68.3	68.3	35	39.6	3	9	90	0.00	30.036 
15:50	68.1	68.1	68.1	36	40.1	2	6	90	0.00	30.036 
15:55	68.4	68.4	68.4	38	41.8	2	4	112	0.00	30.036 
16:00	68.6	68.6	68.6	34	39.1	4	7	248	0.00	30.029 
16:05	68.8	68.8	68.8	36	40.7	2	4	90	0.00	30.029 
16:10	68.6	68.6	68.6	34	39.1	2	5	90	0.00	30.029 
16:15	68.3	68.3	68.3	34	38.8	3	8	90	0.00	30.027 
16:20	68.3	68.3	68.3	35	39.6	3	7	225	0.00	30.027 
16:25	68.3	68.3	68.3	35	39.6	4	10	90	0.00	30.027 
16:30	68.1	68.1	68.1	35	39.4	2	8	112	0.00	30.023 
16:35	68.1	68.1	68.1	34	38.7	2	5	90	0.00	30.023 
16:40	68.1	68.1	68.1	37	40.8	2	6	202	0.00	30.023 
16:45	68.3	68.3	68.3	35	39.6	3	7	90	0.00	30.018 
16:50	67.9	67.9	67.9	36	40.0	3	5	45	0.00	30.018 
16:55	67.8	67.8	67.8	36	39.9	2	6	45	0.00	30.018 
17:00	67.8	67.8	67.8	38	41.3	2	6	112	0.00	30.016 
17:05	67.6	67.6	67.6	36	39.7	2	7	90	0.00	30.016 
17:10	67.4	67.4	67.4	37	40.2	3	9	90	0.00	30.016 
17:15	67.3	67.3	67.3	36	39.4	3	6	68	0.00	30.013 
17:20	66.9	66.9	66.9	37	39.8	2	5	112	0.00	30.013 
17:25	66.9	66.9	66.9	39	41.1	1	4	90	0.00	30.013 
17:30	66.8	66.8	66.8	39	41.0	2	6	112	0.00	30.010 
17:35	66.4	66.4	66.4	39	40.7	3	6	90	0.00	30.010 
17:40	66.3	66.3	66.3	40	41.2	1	6	90	0.00	30.010 
17:45	66.0	66.0	66.0	40	41.0	2	6	338	0.00	30.009 
17:50	65.6	65.6	65.6	41	41.3	1	5	248	0.00	30.009 
17:55	65.5	65.5	65.5	40	40.5	2	5	90	0.00	30.009 
18:00	65.3	65.3	65.3	40	40.4	1	3	112	0.00	30.007 
18:05	65.3	65.3	65.3	40	40.4	1	3	112	0.00	30.007 
18:10	65.3	65.3	65.3	41	41.0	1	3	112	0.00	30.007 
18:15	65.3	65.3	65.3	40	40.4	1	4	112	0.00	30.002 
18:20	65.3	65.3	65.3	40	40.4	1	2	90	0.00	30.002 
18:25	65.2	65.2	65.2	40	40.3	1	2	90	0.00	30.002 
18:30	65.0	65.0	65.0	40	40.1	1	3	112	0.00	29.999 
18:35	65.0	65.0	65.0	40	40.1	1	3	135	0.00	29.999 
18:40	64.7	64.7	64.7	41	40.5	0	2	135	0.00	29.999 
18:45	64.3	64.3	64.3	42	40.7	0	1	135	0.00	29.999 
18:50	64.0	64.0	64.0	43	41.1	0	3	135	0.00	29.999 
18:55	63.7	63.7	63.7	42	40.2	0	2	135	0.00	29.999 
19:00	63.4	63.4	63.4	43	40.5	0	2	135	0.00	30.000 
19:05	63.1	63.1	63.1	43	40.2	0	2	135	0.00	30.000 
19:10	62.7	62.7	62.7	44	40.5	0	1	135	0.00	30.000 
19:15	62.1	62.1	62.1	46	41.1	0	2	135	0.00	29.994 
19:20	61.6	61.6	61.6	46	40.6	0	1	135	0.00	29.994 
19:25	61.2	61.2	61.2	47	40.8	0	1	135	0.00	29.994 
19:30	60.7	60.7	60.7	47	40.3	0	1	135	0.00	29.994 
19:35	60.2	60.2	60.2	48	40.4	0	1	135	0.00	29.994 
19:40	59.8	59.8	59.8	49	40.6	0	1	135	0.00	29.994 
19:45	59.3	59.3	59.3	50	40.7	0	1	135	0.00	29.994 
19:50	58.9	58.9	58.9	51	40.8	0	1	135	0.00	29.994 
19:55	58.4	58.4	58.4	52	40.8	0	1	135	0.00	29.994 
20:00	58.1	58.1	58.1	52	40.6	0	1	135	0.00	29.994 
20:05	58.0	58.0	58.0	52	40.5	0	1	135	0.00	29.994 
20:10	58.0	58.0	58.0	52	40.5	0	1	135	0.00	29.994 
20:15	57.6	57.6	57.6	53	40.6	0	1	135	0.00	29.982 
20:20	57.5	57.5	57.5	54	41.0	0	2	135	0.00	29.982 
20:25	57.2	57.2	57.2	54	40.7	0	1	135	0.00	29.982 
20:30	56.9	56.9	56.9	54	40.4	0	2	135	0.00	29.984 
20:35	56.9	56.9	56.9	54	40.4	0	1	135	0.00	29.984 
20:40	57.0	57.0	57.0	54	40.5	0	2	135	0.00	29.984 
20:45	56.9	56.9	56.9	54	40.4	0	1	135	0.00	29.990 
20:50	56.7	56.7	56.7	55	40.7	0	1	135	0.00	29.990 
20:55	56.5	56.5	56.5	56	41.0	0	1	135	0.00	29.990 
21:00	56.3	56.3	56.3	56	40.8	0	2	135	0.00	29.992 
21:05	56.3	56.3	56.3	56	40.8	1	3	135	0.00	29.992 
21:10	56.5	56.5	56.5	56	41.0	1	3	112	0.00	29.992 
21:15	56.9	56.9	56.9	55	40.9	1	3	135	0.00	29.987 
21:20	57.0	57.0	57.0	54	40.5	1	2	135	0.00	29.987 
21:25	57.2	57.2	57.2	55	41.2	1	2	135	0.00	29.987 
21:30	57.0	57.0	57.0	55	41.0	0	2	135	0.00	29.975 
21:35	56.7	56.7	56.7	56	41.2	1	3	135	0.00	29.975 
21:40	56.6	56.6	56.6	56	41.1	1	3	135	0.00	29.975 
21:45	56.6	56.6	56.6	55	40.6	1	3	112	0.00	29.971 
21:50	56.7	56.7	56.7	56	41.2	1	3	90	0.00	29.971 
21:55	56.7	56.7	56.7	56	41.2	1	2	135	0.00	29.971 
22:00	56.6	56.6	56.6	56	41.1	1	2	135	0.00	29.970 
22:05	56.5	56.5	56.5	56	41.0	1	2	135	0.00	29.970 
22:10	56.3	56.3	56.3	56	40.8	1	2	135	0.00	29.970 
22:15	56.3	56.3	56.3	57	41.3	1	4	135	0.00	29.967 
22:20	56.3	56.3	56.3	56	40.8	1	4	112	0.00	29.967 
22:25	56.3	56.3	56.3	56	40.8	1	3	112	0.00	29.967 
22:30	56.3	56.3	56.3	57	41.3	1	3	112	0.00	29.966 
22:35	56.2	56.2	56.2	57	41.2	1	4	135	0.00	29.966 
22:40	56.0	56.0	56.0	57	41.0	1	2	135	0.00	29.966 
22:45	56.0	56.0	56.0	57	41.0	1	2	112	0.00	29.964 
22:50	55.9	55.9	55.9	57	40.9	1	2	90	0.00	29.964 
22:55	55.9	55.9	55.9	57	40.9	1	4	135	0.00	29.964 
23:00	56.2	56.2	56.2	56	40.7	1	4	90	0.00	29.953 
23:05	56.5	56.5	56.5	55	40.5	1	4	112	0.00	29.953 
23:10	56.7	56.7	56.7	54	40.2	2	6	112	0.00	29.953 
23:15	57.2	57.2	57.2	52	39.7	2	5	112	0.00	29.945 
23:20	57.5	57.5	57.5	52	40.0	1	3	112	0.00	29.945 
23:25	57.6	57.6	57.6	52	40.1	2	5	112	0.00	29.945 
23:30	57.8	57.8	57.8	51	39.8	2	4	112	0.00	29.935 
23:35	58.0	58.0	58.0	51	40.0	2	4	112	0.00	29.935 
23:40	57.8	57.8	57.8	51	39.8	1	5	90	0.00	29.935 
23:45	57.6	57.6	57.6	51	39.6	2	6	90	0.00	29.929 
23:50	57.6	57.6	57.6	51	39.6	2	6	135	0.00	29.929 
23:55	57.6	57.6	57.6	51	39.6	2	5	90	0.00	29.929 

CoCoRaHS
IN-AL-39
A2 Web Hosting
Creative Commons License
GoDaddy
Look for:

loaded 2017-10-18 07:16:33 • last modified 2010-11-18 10:43:29
Privacy PolicyDisclaimer
• wx.awcolley.com is powered by PmWiki v.2002016 •
• all content (unless otherwise noted) © 2017 A W Colley